| time (UTC) | temp F | wind direction | speed MPH | gust MPH | rain 1hr in | rain 24hr in | rain mn in | humidity % | barometer mb |
| 20260510151051 | 55 | 14 | 21.0 | 24.0 | 0.00 | 0.00 | 0.00 | 71 | 1015.9 |
| 20260510150028 | 54 | 32 | 14.0 | 21.0 | 0.00 | 0.00 | 0.00 | 73 | 1016.0 |
| 20260510145025 | 55 | 15 | 18.0 | 23.0 | 0.00 | 0.00 | 0.00 | 71 | 1016.0 |
| 20260510144023 | 56 | 41 | 17.0 | 22.0 | 0.00 | 0.00 | 0.00 | 70 | 1016.1 |
| 20260510143020 | 56 | 41 | 18.0 | 24.0 | 0.00 | 0.00 | 0.00 | 70 | 1016.2 |
| 20260510142017 | 55 | 36 | 17.0 | 23.0 | 0.00 | 0.00 | 0.00 | 71 | 1016.2 |
| 20260510141044 | 55 | 53 | 15.0 | 19.0 | 0.00 | 0.00 | 0.00 | 73 | 1016.0 |
| 20260510140042 | 55 | 27 | 17.0 | 22.0 | 0.00 | 0.00 | 0.00 | 71 | 1016.1 |
| 20260510135039 | 56 | 10 | 16.0 | 24.0 | 0.00 | 0.00 | 0.00 | 69 | 1016.2 |
| 20260510134036 | 57 | 35 | 19.0 | 24.0 | 0.00 | 0.00 | 0.00 | 69 | 1016.4 |
| 20260510133034 | 57 | 38 | 17.0 | 21.0 | 0.00 | 0.00 | 0.00 | 69 | 1016.4 |
| 20260510132031 | 58 | 29 | 17.0 | 22.0 | 0.00 | 0.00 | 0.00 | 67 | 1016.4 |
| 20260510131048 | 57 | 15 | 19.0 | 26.0 | 0.00 | 0.00 | 0.00 | 70 | 1016.4 |
| 20260510130025 | 56 | 18 | 17.0 | 21.0 | 0.00 | 0.00 | 0.00 | 70 | 1016.5 |
| 20260510125022 | 57 | 27 | 19.0 | 25.0 | 0.00 | 0.00 | 0.00 | 69 | 1016.6 |
| 20260510124019 | 58 | 18 | 20.0 | 25.0 | 0.00 | 0.00 | 0.00 | 69 | 1016.7 |
| 20260510123017 | 57 | 21 | 20.0 | 25.0 | 0.00 | 0.00 | 0.00 | 70 | 1016.8 |
| 20260510122104 | 58 | 40 | 18.0 | 22.0 | 0.00 | 0.00 | 0.00 | 70 | 1017.0 |
| 20260510121042 | 58 | 19 | 12.0 | 16.0 | 0.00 | 0.00 | 0.00 | 70 | 1017.1 |
| 20260510120058 | 58 | 29 | 18.0 | 22.0 | 0.00 | 0.00 | 0.00 | 68 | 1017.2 |
| 20260510115036 | 59 | 29 | 15.0 | 18.0 | 0.00 | 0.00 | 0.00 | 67 | 1017.1 |
| 20260510114033 | 58 | 45 | 16.0 | 19.0 | 0.00 | 0.00 | 0.00 | 68 | 1017.2 |
| 20260510113030 | 58 | 28 | 16.0 | 21.0 | 0.00 | 0.00 | 0.00 | 68 | 1017.4 |
| 20260510112027 | 58 | 78 | 17.0 | 21.0 | 0.00 | 0.00 | 0.00 | 68 | 1017.3 |
| 20260510111024 | 57 | 39 | 11.0 | 14.0 | 0.00 | 0.00 | 0.00 | 68 | 1017.5 |
| 20260510110021 | 58 | 42 | 11.0 | 14.0 | 0.00 | 0.00 | 0.00 | 67 | 1017.5 |
| 20260510105018 | 57 | 26 | 13.0 | 18.0 | 0.00 | 0.00 | 0.00 | 68 | 1017.7 |
| 20260510104015 | 57 | 24 | 15.0 | 18.0 | 0.00 | 0.00 | 0.00 | 67 | 1017.6 |
| 20260510103043 | 58 | 54 | 12.0 | 15.0 | 0.00 | 0.00 | 0.00 | 69 | 1017.5 |
| 20260510102041 | 58 | 45 | 11.0 | 15.0 | 0.00 | 0.00 | 0.00 | 70 | 1017.6 |
| 20260510101058 | 57 | 24 | 15.0 | 19.0 | 0.00 | 0.00 | 0.00 | 71 | 1017.7 |
| 20260510100035 | 56 | 37 | 12.0 | 16.0 | 0.00 | 0.00 | 0.00 | 72 | 1017.8 |
| 20260510095032 | 58 | 38 | 12.0 | 15.0 | 0.00 | 0.00 | 0.00 | 70 | 1017.7 |
| 20260510094049 | 56 | 22 | 14.0 | 21.0 | 0.00 | 0.00 | 0.00 | 73 | 1017.9 |
| 20260510093026 | 56 | 17 | 14.0 | 18.0 | 0.00 | 0.00 | 0.00 | 73 | 1017.8 |
| 20260510092044 | 57 | 50 | 14.0 | 18.0 | 0.00 | 0.00 | 0.00 | 72 | 1017.9 |
| 20260510091020 | 57 | 47 | 17.0 | 19.0 | 0.00 | 0.00 | 0.00 | 73 | 1018.1 |
| 20260510090018 | 55 | 50 | 12.0 | 15.0 | 0.00 | 0.00 | 0.00 | 75 | 1018.2 |
| 20260510085035 | 56 | 27 | 16.0 | 22.0 | 0.00 | 0.00 | 0.00 | 74 | 1018.2 |
| 20260510084042 | 56 | 3 | 13.0 | 17.0 | 0.00 | 0.00 | 0.00 | 74 | 1018.2 |
| 20260510083040 | 57 | 24 | 10.0 | 14.0 | 0.00 | 0.00 | 0.00 | 73 | 1018.0 |
| 20260510082037 | 57 | 44 | 12.0 | 15.0 | 0.00 | 0.00 | 0.00 | 73 | 1018.2 |
| 20260510081114 | 55 | 26 | 14.0 | 18.0 | 0.00 | 0.00 | 0.00 | 77 | 1018.1 |
| 20260510080031 | 56 | 44 | 15.0 | 18.0 | 0.00 | 0.00 | 0.00 | 75 | 1018.1 |
| 20260510075028 | 55 | 13 | 15.0 | 19.0 | 0.00 | 0.00 | 0.00 | 77 | 1018.1 |
| 20260510074026 | 54 | 22 | 13.0 | 16.0 | 0.00 | 0.00 | 0.00 | 81 | 1018.3 |
| 20260510073023 | 55 | 28 | 15.0 | 18.0 | 0.00 | 0.00 | 0.00 | 80 | 1018.2 |
| 20260510072020 | 54 | 23 | 12.0 | 15.0 | 0.00 | 0.00 | 0.00 | 80 | 1018.2 |
| 20260510071018 | 55 | 9 | 13.0 | 15.0 | 0.00 | 0.00 | 0.00 | 81 | 1018.2 |
| 20260510070015 | 55 | 29 | 11.0 | 13.0 | 0.00 | 0.00 | 0.00 | 81 | 1018.2 |
| 20260510065042 | 55 | 9 | 10.0 | 11.0 | 0.00 | 0.00 | 0.00 | 81 | 1018.1 |
| 20260510064040 | 55 | 37 | 11.0 | 14.0 | 0.00 | 0.00 | 0.00 | 81 | 1018.1 |
| 20260510063036 | 54 | 23 | 12.0 | 14.0 | 0.00 | 0.00 | 0.00 | 82 | 1018.2 |
| 20260510062034 | 54 | 43 | 10.0 | 11.0 | 0.00 | 0.00 | 0.00 | 83 | 1018.1 |
| 20260510061031 | 54 | 26 | 11.0 | 14.0 | 0.00 | 0.00 | 0.00 | 83 | 1018.2 |
| 20260510060028 | 53 | 1 | 8.0 | 10.0 | 0.00 | 0.00 | 0.00 | 85 | 1018.0 |
| 20260510055025 | 52 | 24 | 10.0 | 14.0 | 0.00 | 0.00 | 0.00 | 84 | 1018.2 |
| 20260510054022 | 51 | 25 | 4.0 | 4.0 | 0.00 | 0.00 | 0.00 | 86 | 1018.3 |
| 20260510053019 | 50 | 360 | 3.0 | 3.0 | 0.00 | 0.00 | 0.00 | 87 | 1018.2 |
| 20260510052056 | 49 | 156 | 1.0 | 1.0 | 0.00 | 0.00 | 0.00 | 88 | 1018.1 |
| 20260510051104 | 48 | 294 | 4.0 | 4.0 | 0.00 | 0.00 | 0.00 | 89 | 1018.0 |
| 20260510050041 | 48 | 272 | 5.0 | 6.0 | 0.00 | 0.00 | 0.00 | 90 | 1018.0 |
| 20260510045038 | 47 | 266 | 7.0 | 8.0 | 0.00 | 0.00 | 0.00 | 91 | 1017.9 |
| 20260510044035 | 46 | 266 | 6.0 | 7.0 | 0.00 | 0.00 | 0.00 | 91 | 1017.9 |
| 20260510043052 | 46 | 266 | 5.0 | 7.0 | 0.00 | 0.00 | 0.00 | 91 | 1018.0 |
| 20260510042029 | 46 | 266 | 6.0 | 7.0 | 0.00 | 0.00 | 0.00 | 91 | 1018.1 |
| 20260510041027 | 46 | 267 | 5.0 | 6.0 | 0.00 | 0.00 | 0.00 | 91 | 1018.2 |
| 20260510040024 | 46 | 267 | 5.0 | 6.0 | 0.00 | 0.00 | 0.00 | 90 | 1018.1 |
| 20260510035021 | 46 | 267 | 5.0 | 6.0 | 0.00 | 0.00 | 0.00 | 89 | 1018.3 |
| 20260510034039 | 46 | 267 | 4.0 | 4.0 | 0.00 | 0.00 | 0.00 | 89 | 1018.4 |
| 20260510033036 | 46 | 267 | 5.0 | 6.0 | 0.00 | 0.00 | 0.00 | 88 | 1018.3 |
| 20260510032043 | 46 | 267 | 3.0 | 3.0 | 0.00 | 0.00 | 0.00 | 88 | 1018.4 |
| 20260510031040 | 46 | 267 | 4.0 | 4.0 | 0.00 | 0.00 | 0.00 | 88 | 1018.3 |
| 20260510030057 | 46 | 267 | 4.0 | 4.0 | 0.00 | 0.00 | 0.00 | 89 | 1018.3 |
| 20260510025055 | 46 | 267 | 5.0 | 6.0 | 0.00 | 0.00 | 0.00 | 89 | 1018.4 |
| 20260510024032 | 47 | 267 | 5.0 | 6.0 | 0.00 | 0.00 | 0.00 | 90 | 1018.4 |
| 20260510023029 | 47 | 267 | 3.0 | 4.0 | 0.00 | 0.00 | 0.00 | 89 | 1018.4 |
| 20260510022027 | 48 | 267 | 5.0 | 7.0 | 0.00 | 0.00 | 0.00 | 90 | 1018.4 |
| 20260510021023 | 48 | 267 | 6.0 | 7.0 | 0.00 | 0.00 | 0.00 | 91 | 1018.3 |
| 20260510020021 | 48 | 267 | 4.0 | 4.0 | 0.00 | 0.00 | 0.00 | 91 | 1018.5 |
| 20260510015018 | 48 | 266 | 5.0 | 7.0 | 0.00 | 0.00 | 0.00 | 90 | 1018.4 |
| 20260510014015 | 49 | 266 | 5.0 | 6.0 | 0.00 | 0.00 | 0.00 | 90 | 1018.6 |
| 20260510013043 | 49 | 266 | 5.0 | 6.0 | 0.00 | 0.00 | 0.00 | 90 | 1018.4 |
| 20260510012040 | 49 | 266 | 5.0 | 6.0 | 0.00 | 0.00 | 0.00 | 90 | 1018.5 |
| 20260510011038 | 50 | 266 | 6.0 | 7.0 | 0.00 | 0.00 | 0.00 | 89 | 1018.5 |
| 20260510010035 | 50 | 266 | 5.0 | 7.0 | 0.00 | 0.00 | 0.00 | 90 | 1018.4 |
| 20260510005032 | 50 | 266 | 5.0 | 7.0 | 0.00 | 0.00 | 0.00 | 90 | 1018.7 |
| 20260510004029 | 49 | 266 | 6.0 | 8.0 | 0.00 | 0.00 | 0.00 | 90 | 1018.5 |
| 20260510003026 | 48 | 267 | 6.0 | 7.0 | 0.00 | 0.00 | 0.00 | 91 | 1018.6 |
| 20260510002043 | 47 | 267 | 5.0 | 6.0 | 0.00 | 0.00 | 0.00 | 91 | 1018.6 |
| 20260510001021 | 47 | 267 | 5.0 | 6.0 | 0.00 | 0.00 | 0.00 | 91 | 1018.8 |
| 20260510000018 | 47 | 267 | 5.0 | 6.0 | 0.00 | 0.00 | 0.00 | 91 | 1018.7 |
| 20260509235055 | 47 | 267 | 6.0 | 7.0 | 0.00 | 0.00 | 0.00 | 91 | 1018.9 |
| 20260509234043 | 46 | 267 | 5.0 | 6.0 | 0.00 | 0.00 | 0.00 | 91 | 1019.0 |
| 20260509233040 | 47 | 267 | 4.0 | 4.0 | 0.00 | 0.00 | 0.00 | 90 | 1019.1 |
| 20260509232037 | 47 | 267 | 4.0 | 4.0 | 0.00 | 0.00 | 0.00 | 90 | 1019.0 |
| 20260509231034 | 47 | 267 | 3.0 | 4.0 | 0.00 | 0.00 | 0.00 | 90 | 1018.8 |
| 20260509230031 | 47 | 267 | 3.0 | 3.0 | 0.00 | 0.00 | 0.00 | 89 | 1018.8 |
| 20260509225028 | 47 | 267 | 4.0 | 4.0 | 0.00 | 0.00 | 0.00 | 89 | 1018.9 |
| 20260509224025 | 48 | 266 | 5.0 | 6.0 | 0.00 | 0.00 | 0.00 | 88 | 1018.8 |
| 20260509223022 | 48 | 266 | 4.0 | 6.0 | 0.00 | 0.00 | 0.00 | 88 | 1019.1 |
| 20260509222020 | 48 | 266 | 3.0 | 4.0 | 0.00 | 0.00 | 0.00 | 89 | 1019.0 |
| 20260509221017 | 48 | 266 | 3.0 | 4.0 | 0.00 | 0.00 | 0.00 | 89 | 1018.9 |
| 20260509220045 | 47 | 266 | 4.0 | 4.0 | 0.00 | 0.00 | 0.00 | 89 | 1019.3 |
| 20260509215042 | 48 | 266 | 3.0 | 3.0 | 0.00 | 0.00 | 0.00 | 88 | 1019.2 |
| 20260509214059 | 48 | 266 | 3.0 | 4.0 | 0.00 | 0.00 | 0.00 | 88 | 1019.3 |
| 20260509213036 | 48 | 266 | 4.0 | 4.0 | 0.00 | 0.00 | 0.00 | 88 | 1019.2 |
| 20260509212033 | 48 | 266 | 3.0 | 3.0 | 0.00 | 0.00 | 0.00 | 87 | 1019.4 |
| 20260509211030 | 49 | 266 | 4.0 | 4.0 | 0.00 | 0.00 | 0.00 | 87 | 1019.4 |
| 20260509210028 | 49 | 266 | 3.0 | 4.0 | 0.00 | 0.00 | 0.00 | 86 | 1019.3 |
| 20260509205025 | 49 | 266 | 4.0 | 6.0 | 0.00 | 0.00 | 0.00 | 86 | 1019.2 |
| 20260509204022 | 49 | 266 | 4.0 | 4.0 | 0.00 | 0.00 | 0.00 | 85 | 1019.3 |
| 20260509203019 | 50 | 266 | 3.0 | 3.0 | 0.00 | 0.00 | 0.00 | 83 | 1019.3 |
| 20260509202037 | 51 | 266 | 3.0 | 3.0 | 0.00 | 0.00 | 0.00 | 81 | 1019.4 |
| 20260509201044 | 52 | 266 | 3.0 | 4.0 | 0.00 | 0.00 | 0.00 | 79 | 1019.3 |
| 20260509200041 | 52 | 266 | 4.0 | 4.0 | 0.00 | 0.00 | 0.00 | 78 | 1019.2 |
| 20260509195038 | 53 | 266 | 4.0 | 4.0 | 0.00 | 0.00 | 0.00 | 78 | 1019.2 |
| 20260509194035 | 53 | 266 | 4.0 | 6.0 | 0.00 | 0.00 | 0.00 | 77 | 1019.0 |
| 20260509193032 | 54 | 266 | 5.0 | 6.0 | 0.00 | 0.00 | 0.00 | 77 | 1019.1 |
| 20260509192029 | 55 | 266 | 5.0 | 7.0 | 0.00 | 0.00 | 0.00 | 77 | 1019.1 |
| 20260509191027 | 56 | 267 | 5.0 | 6.0 | 0.00 | 0.00 | 0.00 | 75 | 1019.0 |
| 20260509190024 | 57 | 277 | 6.0 | 8.0 | 0.00 | 0.00 | 0.00 | 73 | 1019.0 |
| 20260509185021 | 57 | 294 | 4.0 | 6.0 | 0.00 | 0.00 | 0.00 | 72 | 1018.9 |
| 20260509184018 | 58 | 35 | 5.0 | 7.0 | 0.00 | 0.00 | 0.00 | 70 | 1018.8 |
| 20260509183045 | 59 | 351 | 6.0 | 7.0 | 0.00 | 0.00 | 0.00 | 67 | 1019.0 |
| 20260509182042 | 60 | 62 | 4.0 | 6.0 | 0.00 | 0.00 | 0.00 | 66 | 1018.8 |
| 20260509181039 | 60 | 29 | 5.0 | 7.0 | 0.00 | 0.00 | 0.00 | 62 | 1018.9 |
| 20260509180036 | 60 | 84 | 5.0 | 6.0 | 0.00 | 0.00 | 0.00 | 62 | 1019.0 |
| 20260509175033 | 61 | 10 | 6.0 | 8.0 | 0.00 | 0.00 | 0.00 | 61 | 1018.6 |
| 20260509174030 | 61 | 54 | 4.0 | 6.0 | 0.00 | 0.00 | 0.00 | 59 | 1019.0 |
| 20260509173027 | 61 | 81 | 4.0 | 6.0 | 0.00 | 0.00 | 0.00 | 62 | 1019.0 |
| 20260509172025 | 62 | 40 | 7.0 | 9.0 | 0.00 | 0.00 | 0.00 | 58 | 1019.0 |
| 20260509171022 | 63 | 36 | 5.0 | 8.0 | 0.00 | 0.00 | 0.00 | 55 | 1018.9 |
| 20260509170019 | 63 | 30 | 6.0 | 8.0 | 0.00 | 0.00 | 0.00 | 55 | 1018.8 |
| 20260509165016 | 62 | 7 | 4.0 | 7.0 | 0.00 | 0.00 | 0.00 | 57 | 1018.9 |
| 20260509164043 | 63 | 38 | 6.0 | 9.0 | 0.00 | 0.00 | 0.00 | 56 | 1018.8 |
| 20260509163041 | 63 | 30 | 7.0 | 10.0 | 0.00 | 0.00 | 0.00 | 54 | 1018.8 |
| 20260509162038 | 63 | 34 | 7.0 | 8.0 | 0.00 | 0.00 | 0.00 | 56 | 1018.7 |
| 20260509161055 | 62 | 47 | 4.0 | 4.0 | 0.00 | 0.00 | 0.00 | 55 | 1018.8 |
| 20260509160033 | 63 | 71 | 5.0 | 8.0 | 0.00 | 0.00 | 0.00 | 53 | 1018.8 |
| 20260509155110 | 62 | 15 | 4.0 | 8.0 | 0.00 | 0.00 | 0.00 | 54 | 1018.8 |
| 20260509154027 | 63 | 39 | 5.0 | 6.0 | 0.00 | 0.00 | 0.00 | 53 | 1019.0 |
| 20260509153024 | 63 | 52 | 7.0 | 8.0 | 0.00 | 0.00 | 0.00 | 54 | 1019.1 |
| 20260509152021 | 63 | 79 | 4.0 | 6.0 | 0.00 | 0.00 | 0.00 | 54 | 1018.9 |